Terminal Aerodrome Forecast
Issued by NWS

Home | Current Version | Previous Version | Graphics & Text | Print | Product List | Glossary On
Versions: 1 2 3 4 5 6 7 8 9 10 11 12 13 14 15 16 17 18 19 20 21
000
FTUS43 KBIS 222201 AAB
TAFDIK
TAF AMD
KDIK 222201Z 2222/2318 09015G23KT P6SM VCTS SCT090CB SCT150
      TEMPO 2223/2303 4SM TSGR OVC040CB
     FM230300 12018G25KT P6SM -SHRA VCTS BKN090CB
     FM230600 13017G24KT P6SM BKN120
     FM231100 18012KT P6SM BKN130
     FM231300 22012KT P6SM BKN150
     FM231500 29017G24KT P6SM SCT200=

USA.gov is the U.S. government's official web portal to all federal, state and local government web resources and services.